Time;durP1;ratioP1;P1;durP2;ratioP2;P2;SDS_P1;SDS_P2;PMS_P1;PMS_P2;Temp;Humidity;BMP_temperature;BMP_pressure;BME280_temperature;BME280_humidity;BME280_pressure;Samples;Min_cycle;Max_cycle;Signal;HPM_P1;HPM_P2
2022/12/31 05:35:58;;;;;;;8.05;6.63;;;22.00;76.20;;;;;;5958009;26;84554;-96
2022/12/31 05:39:01;;;;;;;7.10;6.40;;;22.00;76.60;;;;;;6173183;28;82838;-96
2022/12/31 05:42:07;;;;;;;6.93;6.22;;;22.00;76.70;;;;;;6151092;28;83732;-96
2022/12/31 05:45:12;;;;;;;7.55;6.82;;;22.00;76.90;;;;;;6145556;28;84430;-96
2022/12/31 06:05:04;;;;;;;6.80;6.15;;;22.00;77.10;;;;;;6139450;28;84912;-96
2022/12/31 06:08:12;;;;;;;6.90;6.25;;;22.00;77.10;;;;;;6137528;28;85636;-96
2022/12/31 06:32:07;;;;;;;6.00;5.45;;;22.00;77.60;;;;;;6164115;28;84158;-96
2022/12/31 06:41:45;;;;;;;5.47;4.97;;;22.10;77.60;;;;;;6165004;28;85669;-96
2022/12/31 06:44:47;;;;;;;5.80;5.30;;;22.10;77.60;;;;;;6162251;28;82957;-96
2022/12/31 06:51:46;;;;;;;6.18;5.57;;;22.20;77.60;;;;;;6157747;28;84526;-96
2022/12/31 07:05:15;;;;;;;7.43;5.82;;;22.20;76.20;;;;;;6153969;28;84492;-96
2022/12/31 07:35:15;;;;;;;11.48;10.35;;;22.30;77.50;;;;;;6177155;28;83767;-96
2022/12/31 07:42:00;;;;;;;12.10;10.90;;;22.40;77.50;;;;;;6166775;28;84055;-96
2022/12/31 07:45:12;;;;;;;34.70;21.55;;;22.40;77.70;;;;;;6158134;28;82462;-96
2022/12/31 07:51:43;;;;;;;61.00;35.42;;;22.40;77.70;;;;;;6156580;28;82911;-96
2022/12/31 07:54:50;;;;;;;62.30;35.95;;;22.40;77.40;;;;;;6161524;28;84549;-96
2022/12/31 07:58:14;;;;;;;61.90;35.75;;;22.30;77.20;;;;;;6159783;28;83200;-96
2022/12/31 08:04:53;;;;;;;58.95;35.53;;;22.40;77.30;;;;;;6163556;28;82589;-96
2022/12/31 08:08:07;;;;;;;60.42;36.25;;;22.30;77.20;;;;;;6144647;28;82735;-96
2022/12/31 08:14:43;;;;;;;61.40;35.38;;;22.40;77.40;;;;;;6158734;28;84557;-96
2022/12/31 08:17:49;;;;;;;52.78;33.17;;;22.30;77.40;;;;;;6157433;28;83894;-96
2022/12/31 08:28:29;;;;;;;52.80;32.20;;;22.30;77.40;;;;;;6162563;28;83352;-96
2022/12/31 08:35:04;;;;;;;48.38;30.50;;;22.40;77.50;;;;;;6169657;28;83874;-96
2022/12/31 08:38:17;;;;;;;47.25;30.08;;;22.30;77.40;;;;;;6158871;28;82753;-96
2022/12/31 08:41:29;;;;;;;45.75;29.27;;;22.40;77.50;;;;;;6169510;28;82302;-96
2022/12/31 08:59:43;;;;;;;40.85;26.45;;;22.40;77.70;;;;;;6151137;28;84381;-96
2022/12/31 09:02:58;;;;;;;38.95;25.80;;;22.40;77.70;;;;;;6161532;28;82915;-96
2022/12/31 09:06:10;;;;;;;37.58;25.40;;;22.40;78.10;;;;;;6152466;28;82753;-96
2022/12/31 09:12:43;;;;;;;38.88;24.95;;;22.40;78.50;;;;;;6155190;28;84251;-96
2022/12/31 09:41:22;;;;;;;25.95;15.43;;;22.30;78.80;;;;;;6172312;28;82006;-96
2022/12/31 10:34:28;;;;;;;20.75;13.52;;;22.50;83.10;;;;;;6183114;28;84650;-96
2022/12/31 11:12:56;;;;;;;15.43;11.18;;;22.60;82.80;;;;;;6182218;28;84654;-96
2022/12/31 11:39:42;;;;;;;15.32;10.40;;;22.60;82.10;;;;;;6160375;28;82582;-96
2022/12/31 12:07:00;;;;;;;15.18;8.90;;;22.70;84.20;;;;;;5985229;29;81507;-96
2022/12/31 12:10:27;;;;;;;13.90;9.38;;;22.70;83.70;;;;;;6028553;29;82301;-96
2022/12/31 12:17:07;;;;;;;12.02;8.60;;;22.80;83.20;;;;;;6110267;23;85346;-66
2022/12/31 12:20:17;;;;;;;13.20;8.90;;;22.70;82.80;;;;;;6157507;28;85987;-66
2022/12/31 12:23:24;;;;;;;12.90;8.52;;;22.70;82.50;;;;;;6158928;28;83987;-67
2022/12/31 12:26:30;;;;;;;15.00;8.70;;;22.80;82.70;;;;;;6150005;28;85019;-66
2022/12/31 12:29:34;;;;;;;10.82;8.55;;;22.70;82.30;;;;;;6159761;28;84071;-66
2022/12/31 12:32:36;;;;;;;13.35;8.45;;;22.70;82.30;;;;;;6146885;28;84181;-66
2022/12/31 12:35:38;;;;;;;11.93;8.68;;;22.70;82.40;;;;;;6158473;28;84555;-66
2022/12/31 12:38:42;;;;;;;11.80;8.50;;;22.70;82.30;;;;;;6157832;28;84356;-68
2022/12/31 12:41:44;;;;;;;14.48;8.73;;;22.70;82.20;;;;;;6159183;28;84466;-68
2022/12/31 12:44:47;;;;;;;11.52;8.43;;;22.70;82.30;;;;;;6148748;28;82968;-68
2022/12/31 12:47:55;;;;;;;10.25;7.70;;;22.70;82.20;;;;;;6158891;28;83314;-69
2022/12/31 12:50:58;;;;;;;12.55;7.72;;;22.70;82.00;;;;;;6156756;28;84161;-69
2022/12/31 12:54:08;;;;;;;10.60;7.90;;;22.70;81.90;;;;;;6154685;28;83999;-69
2022/12/31 12:57:20;;;;;;;11.30;7.60;;;22.70;81.80;;;;;;6153261;28;83985;-68
2022/12/31 13:00:28;;;;;;;9.35;7.40;;;22.70;81.70;;;;;;6159725;28;82842;-69
2022/12/31 13:04:08;;;;;;;9.95;7.68;;;22.70;81.60;;;;;;6159382;28;82955;-68
2022/12/31 13:07:31;;;;;;;11.75;7.85;;;22.70;81.60;;;;;;6158560;28;83753;-69
2022/12/31 13:10:51;;;;;;;11.25;7.70;;;22.70;81.50;;;;;;6151054;28;84377;-68
2022/12/31 13:14:03;;;;;;;8.45;7.07;;;22.70;81.50;;;;;;6147307;28;84275;-69
2022/12/31 13:17:35;;;;;;;9.68;7.65;;;22.70;81.50;;;;;;6155235;28;84069;-69
2022/12/31 13:20:45;;;;;;;9.73;7.00;;;22.70;81.40;;;;;;6149685;28;83817;-69
2022/12/31 13:23:54;;;;;;;12.60;7.55;;;22.70;81.30;;;;;;6147920;28;84086;-69
2022/12/31 13:27:07;;;;;;;7.97;6.68;;;22.70;81.30;;;;;;6158813;28;84113;-68
2022/12/31 13:30:25;;;;;;;11.25;7.03;;;22.70;81.10;;;;;;6145826;28;85277;-69
2022/12/31 13:33:32;;;;;;;8.40;6.72;;;22.70;81.20;;;;;;6148006;28;84015;-69
2022/12/31 13:36:39;;;;;;;9.38;6.47;;;22.70;81.20;;;;;;6157314;28;82854;-68
2022/12/31 13:39:43;;;;;;;13.75;7.00;;;22.70;81.10;;;;;;6155676;28;82918;-69
2022/12/31 13:42:55;;;;;;;9.43;6.80;;;22.60;81.60;;;;;;6158639;28;83033;-69
2022/12/31 13:46:08;;;;;;;13.65;7.10;;;22.70;81.90;;;;;;6155527;28;84072;-69
2022/12/31 13:49:18;;;;;;;10.77;6.88;;;22.70;82.10;;;;;;6163047;28;84116;-68
2022/12/31 13:52:30;;;;;;;12.00;6.82;;;22.60;82.10;;;;;;6155505;28;83803;-69
2022/12/31 13:55:38;;;;;;;10.73;6.93;;;22.70;82.20;;;;;;6151764;28;84023;-67
2022/12/31 13:58:47;;;;;;;12.75;6.60;;;22.70;82.40;;;;;;6159335;28;82020;-68
2022/12/31 14:01:52;;;;;;;7.93;6.20;;;22.70;83.00;;;;;;6155327;28;84381;-71
2022/12/31 14:05:00;;;;;;;37.95;14.40;;;22.70;83.20;;;;;;6148962;28;84082;-70
2022/12/31 14:08:05;;;;;;;141.50;46.67;;;22.70;84.70;;;;;;6161885;28;84472;-71
2022/12/31 14:11:15;;;;;;;140.07;42.92;;;22.70;96.50;;;;;;6162577;28;84038;-71
2022/12/31 14:14:27;;;;;;;141.93;52.42;;;22.80;99.90;;;;;;6139480;28;84360;-71
2022/12/31 14:17:39;;;;;;;59.45;23.55;;;23.00;99.90;;;;;;6142803;28;84452;-72
2022/12/31 14:20:46;;;;;;;50.45;17.67;;;23.00;99.90;;;;;;6152007;28;83965;-69
2022/12/31 14:23:57;;;;;;;47.88;16.73;;;23.00;94.60;;;;;;6139117;28;84248;-72
2022/12/31 14:27:03;;;;;;;38.15;15.13;;;23.00;95.90;;;;;;6150638;28;84293;-71
2022/12/31 14:30:14;;;;;;;31.95;14.15;;;23.00;92.20;;;;;;6159442;28;84110;-70
2022/12/31 14:33:34;;;;;;;37.08;15.65;;;23.00;92.10;;;;;;6149123;28;84991;-71
2022/12/31 14:36:46;;;;;;;34.95;16.42;;;22.90;93.30;;;;;;6147013;28;84051;-70
2022/12/31 14:39:57;;;;;;;39.75;16.88;;;23.00;95.80;;;;;;6145052;28;84561;-72
2022/12/31 14:43:07;;;;;;;37.72;16.40;;;23.00;99.90;;;;;;6136194;28;84443;-71
2022/12/31 14:46:20;;;;;;;33.15;15.10;;;23.10;99.90;;;;;;6136139;28;84447;-69
2022/12/31 14:49:34;;;;;;;30.63;14.27;;;23.10;99.90;;;;;;6134992;28;84536;-71
2022/12/31 14:52:49;;;;;;;29.20;14.23;;;23.10;96.40;;;;;;6140915;28;84829;-71
2022/12/31 14:55:58;;;;;;;34.75;14.00;;;23.20;96.20;;;;;;6134073;28;84316;-71
2022/12/31 14:59:02;;;;;;;31.48;14.25;;;23.20;98.70;;;;;;6134741;28;84493;-71
2022/12/31 15:02:30;;;;;;;30.33;13.73;;;23.30;99.30;;;;;;6143358;28;84698;-71
2022/12/31 15:05:34;;;;;;;31.55;13.23;;;23.30;99.20;;;;;;6136730;28;85267;-71
2022/12/31 15:08:47;;;;;;;26.08;12.85;;;23.30;98.70;;;;;;6138524;28;84507;-71
2022/12/31 15:12:17;;;;;;;29.33;12.95;;;23.40;98.70;;;;;;6133902;28;84429;-71
2022/12/31 15:15:57;;;;;;;29.17;13.93;;;23.40;98.50;;;;;;6136167;28;84648;-71
2022/12/31 15:19:55;;;;;;;27.88;13.05;;;23.40;98.50;;;;;;6037636;28;85090;-70
2022/12/31 15:22:57;;;;;;;28.25;13.20;;;23.40;98.40;;;;;;6147100;28;84361;-71
2022/12/31 15:26:01;;;;;;;29.67;12.98;;;23.40;98.90;;;;;;6152820;28;84149;-71
2022/12/31 15:29:06;;;;;;;37.03;18.45;;;23.50;99.60;;;;;;6147675;28;84506;-69
2022/12/31 15:32:18;;;;;;;32.58;15.98;;;23.40;99.90;;;;;;6150183;28;83998;-71
2022/12/31 15:35:31;;;;;;;25.83;14.10;;;23.40;98.80;;;;;;6145418;28;83698;-71
2022/12/31 15:38:36;;;;;;;26.40;15.50;;;23.40;98.00;;;;;;6146058;28;84084;-71
2022/12/31 15:41:42;;;;;;;26.60;14.98;;;23.40;99.90;;;;;;6153117;28;84181;-71
2022/12/31 15:44:49;;;;;;;25.42;13.82;;;23.50;99.90;;;;;;6155792;28;82789;-71
2022/12/31 15:47:56;;;;;;;24.38;13.75;;;23.40;99.90;;;;;;6157385;28;86029;-71
2022/12/31 15:51:02;;;;;;;21.42;12.13;;;23.40;99.90;;;;;;6156666;28;84326;-71
2022/12/31 15:54:07;;;;;;;24.63;14.45;;;23.40;99.90;;;;;;6142291;28;84016;-70
2022/12/31 15:57:16;;;;;;;20.13;11.57;;;23.40;99.90;;;;;;6157041;28;84083;-71
2022/12/31 16:00:21;;;;;;;20.63;11.35;;;23.40;97.00;;;;;;6156178;28;83334;-70
2022/12/31 16:03:25;;;;;;;20.92;11.40;;;23.40;96.10;;;;;;6157861;28;84427;-69
2022/12/31 16:06:31;;;;;;;20.60;12.15;;;23.40;96.60;;;;;;6159091;28;84314;-72
2022/12/31 16:09:35;;;;;;;22.88;11.20;;;23.40;96.90;;;;;;6146015;28;85153;-71
2022/12/31 16:12:39;;;;;;;21.17;11.18;;;23.40;97.00;;;;;;6152221;28;83958;-72
2022/12/31 16:15:41;;;;;;;21.75;12.50;;;23.40;94.80;;;;;;6146017;28;83282;-69
2022/12/31 16:18:44;;;;;;;21.58;11.88;;;23.50;98.50;;;;;;6139369;28;84005;-70
2022/12/31 16:21:48;;;;;;;20.75;12.50;;;23.50;97.80;;;;;;6135582;28;83978;-70
2022/12/31 16:24:54;;;;;;;21.92;12.52;;;23.50;99.70;;;;;;6147580;28;83667;-69
2022/12/31 16:27:57;;;;;;;21.55;12.75;;;23.50;99.80;;;;;;6149055;28;84062;-69
2022/12/31 16:31:02;;;;;;;18.67;10.82;;;23.50;99.90;;;;;;6147382;28;83350;-70
2022/12/31 16:34:07;;;;;;;17.98;10.55;;;23.50;97.00;;;;;;6154115;28;83991;-70
2022/12/31 16:37:15;;;;;;;18.02;10.82;;;23.50;95.80;;;;;;6156568;28;84009;-69
2022/12/31 16:40:24;;;;;;;17.25;10.88;;;23.50;95.50;;;;;;6146956;28;85183;-71
2022/12/31 16:43:28;;;;;;;17.65;10.13;;;23.60;99.90;;;;;;6153516;28;83762;-69
2022/12/31 16:46:32;;;;;;;17.48;10.07;;;23.60;98.60;;;;;;6154993;28;84311;-69
2022/12/31 16:49:37;;;;;;;17.50;10.40;;;23.60;96.70;;;;;;6154277;28;83633;-69
2022/12/31 16:52:43;;;;;;;20.25;10.32;;;23.60;95.80;;;;;;6148838;28;84042;-69
2022/12/31 16:55:52;;;;;;;19.45;10.40;;;23.60;94.80;;;;;;6156135;28;84863;-69
2022/12/31 16:59:02;;;;;;;18.02;10.93;;;23.70;94.20;;;;;;6150863;28;84078;-70
2022/12/31 17:02:12;;;;;;;23.35;12.23;;;23.70;95.30;;;;;;6155095;28;83982;-70
2022/12/31 17:05:19;;;;;;;19.55;12.02;;;23.70;93.50;;;;;;6145040;28;84946;-69
2022/12/31 17:08:28;;;;;;;16.77;11.20;;;23.70;93.30;;;;;;6155524;28;83466;-70
2022/12/31 17:11:35;;;;;;;22.08;11.98;;;23.70;92.60;;;;;;6150883;28;83981;-70
2022/12/31 17:14:48;;;;;;;24.35;12.50;;;23.70;95.40;;;;;;6151877;28;84093;-69
2022/12/31 17:17:55;;;;;;;19.83;12.63;;;23.70;93.00;;;;;;6147477;28;84161;-69
2022/12/31 17:21:07;;;;;;;20.25;12.25;;;23.70;93.00;;;;;;6151327;28;84844;-69
2022/12/31 17:24:14;;;;;;;19.58;11.95;;;23.70;91.80;;;;;;6145298;28;83179;-68
2022/12/31 17:27:16;;;;;;;19.15;12.10;;;23.70;91.60;;;;;;6148102;28;83264;-69
2022/12/31 17:30:21;;;;;;;19.55;13.05;;;23.70;92.40;;;;;;6154698;28;83672;-68
2022/12/31 17:33:29;;;;;;;18.58;13.02;;;23.70;91.60;;;;;;6153809;28;83333;-68
2022/12/31 17:36:32;;;;;;;16.60;12.68;;;23.70;91.30;;;;;;6153325;28;82901;-69
2022/12/31 17:39:45;;;;;;;15.98;12.35;;;23.70;91.20;;;;;;6150813;28;84459;-69
2022/12/31 17:42:47;;;;;;;16.58;13.05;;;23.70;91.50;;;;;;6148036;28;83061;-69
2022/12/31 17:45:52;;;;;;;18.80;13.77;;;23.70;91.40;;;;;;6146034;28;84192;-68
2022/12/31 17:48:59;;;;;;;17.00;13.63;;;23.70;91.00;;;;;;6156495;28;84386;-69
2022/12/31 17:52:01;;;;;;;16.75;13.85;;;23.70;90.80;;;;;;6158393;28;84169;-69
2022/12/31 17:55:05;;;;;;;18.08;13.90;;;23.70;90.60;;;;;;6151649;28;83452;-69
2022/12/31 17:58:07;;;;;;;18.75;14.00;;;23.60;90.40;;;;;;6154760;28;84054;-69
2022/12/31 18:01:13;;;;;;;17.83;14.05;;;23.60;90.40;;;;;;6155348;28;84593;-69
2022/12/31 18:04:17;;;;;;;17.92;14.88;;;23.70;90.10;;;;;;6151960;28;82844;-69
2022/12/31 18:07:19;;;;;;;17.63;14.77;;;23.60;90.00;;;;;;6149074;28;84029;-70
2022/12/31 18:10:25;;;;;;;23.08;16.58;;;23.60;89.50;;;;;;6148019;28;84153;-69
2022/12/31 18:13:28;;;;;;;19.40;15.23;;;23.60;89.00;;;;;;6146150;28;85217;-69
2022/12/31 18:16:30;;;;;;;19.38;15.63;;;23.60;89.00;;;;;;6148102;28;84354;-69
2022/12/31 18:19:32;;;;;;;18.80;16.00;;;23.50;88.60;;;;;;6147719;28;83008;-69
2022/12/31 18:22:34;;;;;;;18.30;16.33;;;23.50;88.60;;;;;;6134321;28;82873;-68
2022/12/31 18:25:38;;;;;;;19.85;16.38;;;23.50;88.30;;;;;;6153943;28;84142;-69
2022/12/31 18:28:40;;;;;;;20.30;16.52;;;23.50;88.10;;;;;;6145914;28;84370;-68
2022/12/31 18:31:45;;;;;;;20.67;17.40;;;23.50;88.10;;;;;;6150112;28;86387;-69
2022/12/31 18:34:47;;;;;;;18.70;16.10;;;23.40;87.80;;;;;;6149348;28;82894;-69
2022/12/31 18:37:49;;;;;;;19.05;16.52;;;23.50;87.90;;;;;;6144875;28;82869;-69
2022/12/31 18:40:55;;;;;;;19.17;17.20;;;23.40;87.70;;;;;;6156155;28;83005;-69
2022/12/31 18:43:57;;;;;;;20.75;17.67;;;23.40;87.60;;;;;;6150531;28;84950;-69
2022/12/31 18:46:59;;;;;;;19.40;17.40;;;23.40;87.60;;;;;;6150313;28;84360;-69
2022/12/31 18:50:01;;;;;;;18.85;16.88;;;23.40;87.60;;;;;;6154246;28;84422;-69
2022/12/31 18:53:03;;;;;;;22.45;18.33;;;23.30;87.60;;;;;;6153161;28;84400;-69
2022/12/31 18:56:11;;;;;;;20.35;18.15;;;23.30;87.40;;;;;;6135426;28;84492;-68
2022/12/31 18:59:13;;;;;;;20.20;18.17;;;23.40;87.40;;;;;;6144304;28;84305;-68
2022/12/31 19:02:18;;;;;;;18.83;17.00;;;23.40;87.40;;;;;;6150670;28;85445;-70
2022/12/31 19:05:23;;;;;;;19.67;17.67;;;23.40;87.90;;;;;;6154975;28;83410;-72
2022/12/31 19:08:25;;;;;;;19.90;17.45;;;23.30;89.30;;;;;;6157473;28;84307;-69
2022/12/31 19:11:28;;;;;;;20.80;18.38;;;23.40;89.80;;;;;;6156462;28;84002;-68
2022/12/31 19:14:30;;;;;;;19.98;17.88;;;23.40;89.60;;;;;;6159027;28;84019;-67
2022/12/31 19:17:32;;;;;;;20.33;18.23;;;23.40;90.80;;;;;;6161119;28;84308;-68
2022/12/31 19:20:35;;;;;;;20.95;18.73;;;23.40;93.80;;;;;;6155742;28;84052;-68
2022/12/31 19:23:37;;;;;;;20.10;18.00;;;23.50;93.40;;;;;;6153588;28;84079;-69
2022/12/31 19:26:41;;;;;;;20.27;18.15;;;23.60;92.20;;;;;;6155942;28;82909;-68
2022/12/31 19:29:43;;;;;;;21.25;19.10;;;23.60;91.30;;;;;;6158833;28;83161;-67
2022/12/31 19:32:45;;;;;;;19.48;17.48;;;23.70;93.60;;;;;;6153409;28;84140;-67
2022/12/31 19:35:48;;;;;;;22.02;18.70;;;23.70;91.20;;;;;;6156706;28;83756;-67
2022/12/31 19:38:50;;;;;;;20.27;18.17;;;23.70;90.80;;;;;;6154468;28;84077;-68
2022/12/31 19:41:53;;;;;;;19.55;17.58;;;23.80;90.70;;;;;;6153333;28;84517;-68
2022/12/31 19:44:55;;;;;;;21.52;18.48;;;23.90;90.30;;;;;;6153629;28;85144;-68
2022/12/31 19:47:57;;;;;;;20.48;18.30;;;23.90;90.00;;;;;;6154708;28;84082;-67
2022/12/31 19:50:59;;;;;;;21.00;18.80;;;23.90;89.40;;;;;;6153875;28;84110;-67
2022/12/31 19:54:01;;;;;;;19.75;17.80;;;23.90;88.90;;;;;;6153921;28;84092;-67
2022/12/31 19:57:05;;;;;;;19.85;17.95;;;23.90;88.50;;;;;;6154618;28;84411;-67
2022/12/31 20:00:10;;;;;;;21.17;18.98;;;23.90;88.30;;;;;;6155094;28;84046;-67
2022/12/31 20:03:15;;;;;;;20.85;18.73;;;24.00;88.10;;;;;;6156050;28;85592;-68
2022/12/31 20:06:18;;;;;;;20.00;17.90;;;23.90;87.70;;;;;;6148655;28;83390;-67
2022/12/31 20:09:20;;;;;;;21.55;19.35;;;23.90;87.50;;;;;;6148401;28;84020;-69
2022/12/31 20:12:24;;;;;;;25.83;23.20;;;23.90;90.50;;;;;;6151370;28;84094;-69
2022/12/31 20:15:26;;;;;;;24.58;22.27;;;23.90;86.50;;;;;;6159309;28;84003;-68
2022/12/31 20:18:28;;;;;;;24.05;21.60;;;23.90;84.40;;;;;;6159077;28;84096;-68
2022/12/31 20:21:30;;;;;;;22.42;20.33;;;23.80;84.70;;;;;;6155563;28;84030;-67
2022/12/31 20:24:32;;;;;;;22.58;20.45;;;23.80;85.20;;;;;;6154928;28;82970;-68
2022/12/31 20:27:35;;;;;;;22.65;20.25;;;23.70;85.40;;;;;;6136150;28;84116;-68
2022/12/31 20:30:38;;;;;;;22.95;19.77;;;23.70;85.30;;;;;;6149990;28;83779;-69
2022/12/31 20:33:40;;;;;;;22.42;19.90;;;23.70;85.40;;;;;;6160356;28;84663;-68
2022/12/31 20:36:42;;;;;;;22.15;19.00;;;23.70;85.50;;;;;;6158317;28;82782;-69
2022/12/31 20:39:45;;;;;;;21.33;19.13;;;23.60;85.70;;;;;;6159487;28;84114;-69
2022/12/31 20:42:48;;;;;;;22.13;19.83;;;23.60;85.60;;;;;;6158616;28;84071;-68
2022/12/31 20:45:50;;;;;;;22.40;19.40;;;23.60;85.70;;;;;;6139405;28;83997;-69
2022/12/31 20:48:54;;;;;;;20.00;17.90;;;23.60;85.70;;;;;;6133995;28;84517;-68
2022/12/31 20:51:56;;;;;;;20.23;18.23;;;23.60;85.70;;;;;;6138945;28;83002;-69
2022/12/31 20:54:58;;;;;;;20.67;18.48;;;23.60;85.70;;;;;;6155676;28;84057;-68
2022/12/31 20:58:02;;;;;;;21.17;18.90;;;23.60;85.70;;;;;;6158514;28;84052;-69
2022/12/31 21:01:06;;;;;;;21.45;19.25;;;23.60;85.50;;;;;;6136651;28;84031;-69
2022/12/31 21:04:08;;;;;;;21.88;19.77;;;23.50;85.30;;;;;;6140232;28;84237;-69
2022/12/31 21:07:10;;;;;;;21.23;18.98;;;23.50;85.20;;;;;;6138903;28;83455;-69
2022/12/31 21:10:14;;;;;;;21.10;18.13;;;23.60;85.40;;;;;;6142382;28;84381;-68
2022/12/31 21:13:21;;;;;;;20.42;18.25;;;23.60;85.40;;;;;;6142747;28;83100;-68
2022/12/31 21:16:24;;;;;;;19.90;18.00;;;23.60;85.40;;;;;;6154909;28;85007;-69
2022/12/31 21:19:26;;;;;;;20.88;18.77;;;23.60;85.40;;;;;;6148107;28;84153;-69
2022/12/31 21:22:28;;;;;;;20.63;18.67;;;23.50;85.30;;;;;;6151004;28;84336;-69
2022/12/31 21:25:30;;;;;;;20.42;18.40;;;23.60;85.20;;;;;;6152972;28;84361;-69
2022/12/31 21:28:34;;;;;;;20.92;18.83;;;23.50;85.20;;;;;;6152437;28;83975;-68
2022/12/31 21:31:36;;;;;;;19.77;17.77;;;23.50;85.30;;;;;;6154262;28;84147;-69
2022/12/31 21:34:38;;;;;;;20.38;18.40;;;23.50;85.20;;;;;;6144934;28;83010;-68
2022/12/31 21:37:40;;;;;;;20.42;18.42;;;23.50;85.20;;;;;;6158500;28;83312;-69
2022/12/31 21:40:43;;;;;;;20.08;18.08;;;23.50;85.20;;;;;;6157019;28;85244;-69
2022/12/31 21:43:47;;;;;;;19.83;18.02;;;23.40;86.20;;;;;;6151744;28;84384;-69
2022/12/31 21:46:53;;;;;;;19.98;17.98;;;23.40;85.30;;;;;;6148704;28;85073;-69
2022/12/31 21:49:55;;;;;;;20.75;18.75;;;23.40;85.40;;;;;;6153396;28;83764;-68
2022/12/31 21:52:57;;;;;;;20.63;18.60;;;23.40;85.30;;;;;;6146995;28;84107;-68
2022/12/31 21:56:08;;;;;;;19.48;17.48;;;23.40;85.40;;;;;;6145606;28;82954;-69
2022/12/31 22:06:01;;;;;;;21.02;17.92;;;23.30;85.40;;;;;;6161020;28;83834;-68
2022/12/31 22:09:04;;;;;;;20.08;18.23;;;23.30;85.50;;;;;;6158224;28;83892;-69
2022/12/31 22:12:06;;;;;;;19.42;17.52;;;23.30;85.60;;;;;;6159902;28;83740;-69
2022/12/31 22:15:10;;;;;;;20.52;18.10;;;23.30;85.70;;;;;;6157765;28;84108;-71
2022/12/31 22:18:13;;;;;;;22.23;17.83;;;23.30;85.70;;;;;;6157992;28;85033;-69
2022/12/31 22:21:16;;;;;;;22.27;18.02;;;23.30;86.10;;;;;;6158695;28;83962;-69
2022/12/31 22:24:18;;;;;;;20.58;18.40;;;23.30;86.00;;;;;;6146499;28;84304;-69
2022/12/31 22:27:20;;;;;;;19.67;17.67;;;23.30;85.70;;;;;;6160734;28;84049;-68
2022/12/31 22:30:24;;;;;;;19.67;17.83;;;23.30;85.40;;;;;;6157594;28;84177;-69
2022/12/31 22:33:26;;;;;;;19.48;17.55;;;23.30;85.40;;;;;;6159541;28;82974;-69
2022/12/31 22:36:28;;;;;;;18.95;17.15;;;23.30;85.30;;;;;;6155185;28;84011;-69
2022/12/31 22:39:30;;;;;;;19.45;17.45;;;23.30;85.20;;;;;;6153061;28;84171;-69
2022/12/31 22:42:32;;;;;;;19.27;17.48;;;23.20;85.10;;;;;;6160438;28;84160;-68
2022/12/31 22:45:36;;;;;;;19.33;17.33;;;23.20;85.20;;;;;;6154817;28;84342;-68
2022/12/31 22:48:39;;;;;;;19.63;17.55;;;23.20;85.10;;;;;;6156784;28;84911;-69
2022/12/31 22:51:41;;;;;;;19.45;17.13;;;23.20;85.00;;;;;;6156708;28;84190;-68
2022/12/31 22:54:43;;;;;;;19.05;17.33;;;23.20;84.90;;;;;;6159614;28;84028;-68
2022/12/31 22:57:45;;;;;;;20.25;18.35;;;23.10;84.70;;;;;;6151743;28;84114;-68
2022/12/31 23:00:48;;;;;;;20.58;18.48;;;23.10;84.70;;;;;;6145097;28;84498;-68
2022/12/31 23:03:52;;;;;;;21.23;19.20;;;23.10;84.70;;;;;;6149172;28;86989;-69
2022/12/31 23:06:54;;;;;;;20.20;18.30;;;23.10;84.60;;;;;;6148087;28;85928;-68
2022/12/31 23:23:16;;;;;;;23.10;20.85;;;23.00;84.40;;;;;;6159182;28;82794;-68
2022/12/31 23:26:18;;;;;;;24.10;21.83;;;23.00;84.40;;;;;;6148029;28;84353;-68
2022/12/31 23:29:21;;;;;;;23.88;21.63;;;23.00;84.40;;;;;;6147379;28;84329;-68
2022/12/31 23:32:24;;;;;;;25.35;22.85;;;23.00;84.20;;;;;;6155518;28;83696;-69
2022/12/31 23:35:26;;;;;;;26.30;23.70;;;23.00;85.00;;;;;;6145018;28;84098;-68
2022/12/31 23:38:28;;;;;;;26.77;24.27;;;23.00;84.30;;;;;;6138653;28;84378;-68
2022/12/31 23:41:30;;;;;;;26.42;23.88;;;23.00;84.40;;;;;;6146056;28;84360;-68
2022/12/31 23:44:33;;;;;;;26.13;23.83;;;23.00;84.90;;;;;;6140509;28;84281;-69
2022/12/31 23:47:36;;;;;;;24.40;22.15;;;22.90;84.70;;;;;;6151641;28;84230;-68
2022/12/31 23:50:40;;;;;;;21.15;18.83;;;23.00;84.00;;;;;;6155818;28;84904;-68
2022/12/31 23:53:42;;;;;;;21.67;19.45;;;22.90;82.50;;;;;;6151706;28;84219;-69
